createdAt,value
2018-12-11T00:01:19.897Z,1.70
2018-12-11T00:03:53.832Z,1.70
2018-12-11T00:06:27.837Z,1.80
2018-12-11T00:09:02.953Z,1.70
2018-12-11T00:11:37.605Z,1.70
2018-12-11T00:14:12.345Z,1.70
2018-12-11T00:16:47.157Z,1.70
2018-12-11T00:19:21.072Z,1.70
2018-12-11T00:21:51.095Z,1.70
2018-12-11T00:24:25.059Z,1.70
2018-12-11T00:26:59.052Z,1.70
2018-12-11T00:29:33.773Z,1.80
2018-12-11T00:32:10.714Z,1.80
2018-12-11T00:34:44.742Z,1.80
2018-12-11T00:37:14.645Z,1.80
2018-12-11T00:39:49.505Z,1.80
2018-12-11T00:42:25.470Z,1.80
2018-12-11T00:45:00.509Z,1.80
2018-12-11T00:47:34.435Z,1.90
2018-12-11T00:50:08.423Z,1.90
2018-12-11T00:52:42.383Z,1.90
2018-12-11T00:55:17.021Z,1.80
2018-12-11T00:57:51.226Z,1.80
2018-12-11T01:00:25.273Z,2.00
2018-12-11T01:02:59.957Z,1.90
2018-12-11T01:05:34.641Z,2.00
2018-12-11T01:08:09.449Z,1.90
2018-12-11T01:10:44.350Z,1.90
2018-12-11T01:13:18.557Z,1.90
2018-12-11T01:15:53.083Z,2.00
2018-12-11T01:18:27.303Z,2.00
2018-12-11T01:21:01.208Z,2.00
2018-12-11T01:23:36.249Z,2.00
2018-12-11T01:26:10.275Z,2.10
2018-12-11T01:28:44.210Z,2.10
2018-12-11T01:31:18.329Z,2.10
2018-12-11T01:33:53.526Z,2.10
2018-12-11T01:36:28.238Z,2.20
2018-12-11T01:39:05.842Z,2.20
2018-12-11T01:41:39.954Z,2.20
2018-12-11T01:44:14.676Z,2.10
2018-12-11T01:46:48.597Z,2.10
2018-12-11T01:49:22.533Z,2.00
2018-12-11T01:51:57.466Z,2.00
2018-12-11T01:54:32.196Z,2.00
2018-12-11T01:57:06.986Z,2.00
2018-12-11T01:59:40.991Z,2.10
2018-12-11T02:02:12.859Z,2.10
2018-12-11T02:04:47.594Z,2.10
2018-12-11T02:07:21.749Z,2.00
2018-12-11T02:09:56.500Z,1.90
2018-12-11T02:12:31.353Z,1.80
2018-12-11T02:15:02.175Z,1.80
2018-12-11T02:17:36.092Z,1.80
2018-12-11T02:20:10.222Z,1.80
2018-12-11T02:22:44.209Z,1.80
2018-12-11T02:25:19.017Z,1.80
2018-12-11T02:27:52.951Z,1.80
2018-12-11T02:30:26.855Z,1.80
2018-12-11T02:33:03.026Z,1.80
2018-12-11T02:35:36.943Z,1.80
2018-12-11T02:38:10.973Z,1.80
2018-12-11T02:40:45.901Z,1.90
2018-12-11T02:43:21.112Z,1.90
2018-12-11T02:45:55.758Z,2.00
2018-12-11T02:48:30.587Z,2.00
2018-12-11T02:51:01.426Z,2.00
2018-12-11T02:53:36.241Z,2.00
2018-12-11T02:56:10.286Z,2.00
2018-12-11T02:58:45.078Z,1.90
2018-12-11T03:01:19.109Z,1.90
2018-12-11T03:03:49.761Z,1.90
2018-12-11T03:06:23.690Z,1.90
2018-12-11T03:08:57.601Z,1.80
2018-12-11T03:11:34.566Z,1.80
2018-12-11T03:14:05.189Z,1.80
2018-12-11T03:16:39.409Z,1.80
2018-12-11T03:19:10.118Z,1.80
2018-12-11T03:21:44.113Z,1.80
2018-12-11T03:24:18.625Z,1.80
2018-12-11T03:26:53.354Z,1.80
2018-12-11T03:29:27.256Z,1.80
2018-12-11T03:32:02.221Z,1.80
2018-12-11T03:34:33.061Z,1.90
2018-12-11T03:37:07.081Z,1.80
2018-12-11T03:39:37.094Z,1.90
2018-12-11T03:42:13.950Z,1.90
2018-12-11T03:44:48.810Z,1.80
2018-12-11T03:47:23.558Z,1.90
2018-12-11T03:49:57.557Z,1.90
2018-12-11T03:52:31.561Z,2.00
2018-12-11T03:55:06.350Z,2.00
2018-12-11T03:57:37.182Z,2.00
2018-12-11T04:00:12.232Z,2.10
2018-12-11T04:02:47.869Z,2.10
2018-12-11T04:05:22.661Z,2.10
2018-12-11T04:07:56.703Z,2.00
2018-12-11T04:10:31.389Z,2.10
2018-12-11T04:13:06.061Z,2.10
2018-12-11T04:15:41.069Z,2.00
2018-12-11T04:18:15.389Z,2.00
2018-12-11T04:20:45.498Z,1.90
2018-12-11T04:23:19.538Z,1.90
2018-12-11T04:25:53.650Z,1.80
2018-12-11T04:28:27.605Z,1.80
2018-12-11T04:31:02.437Z,1.90
2018-12-11T04:33:38.649Z,2.00
2018-12-11T04:36:13.273Z,2.00
2018-12-11T04:38:47.925Z,2.00
2018-12-11T04:41:18.784Z,2.00
2018-12-11T04:43:52.681Z,1.90
2018-12-11T04:46:27.517Z,1.80
2018-12-11T04:49:01.441Z,1.80
2018-12-11T04:51:35.454Z,1.80
2018-12-11T04:54:09.381Z,1.90
2018-12-11T04:56:43.282Z,1.90
2018-12-11T04:59:17.312Z,2.00
2018-12-11T05:01:51.319Z,2.10
2018-12-11T05:04:25.318Z,2.10
2018-12-11T05:06:59.221Z,2.10
2018-12-11T05:09:33.253Z,2.10
2018-12-11T05:12:07.361Z,2.10
2018-12-11T05:14:41.989Z,2.10
2018-12-11T05:17:15.960Z,2.20
2018-12-11T05:19:49.898Z,2.20
2018-12-11T05:22:24.835Z,2.30
2018-12-11T05:24:59.549Z,2.30
2018-12-11T05:27:34.352Z,2.20
2018-12-11T05:30:09.198Z,2.20
2018-12-11T05:32:40.062Z,2.20
2018-12-11T05:35:13.982Z,2.30
2018-12-11T05:37:47.886Z,2.30
2018-12-11T05:40:22.810Z,2.20
2018-12-11T05:42:56.819Z,2.30
2018-12-11T05:45:30.843Z,2.10
2018-12-11T05:48:05.345Z,2.10
2018-12-11T05:50:39.368Z,2.10
2018-12-11T05:53:13.297Z,2.20
2018-12-11T05:55:47.237Z,2.10
2018-12-11T05:58:22.065Z,2.00
2018-12-11T06:00:56.167Z,2.00
2018-12-11T06:03:30.847Z,1.90
2018-12-11T06:06:01.449Z,2.00
2018-12-11T06:08:36.249Z,1.90
2018-12-11T06:11:10.438Z,2.00
2018-12-11T06:13:46.271Z,2.00
2018-12-11T06:16:20.497Z,2.00
2018-12-11T06:18:51.289Z,1.90
2018-12-11T06:21:26.264Z,2.00
2018-12-11T06:24:01.074Z,1.90
2018-12-11T06:26:35.891Z,2.00
2018-12-11T06:29:06.586Z,2.00
2018-12-11T06:31:40.665Z,2.00
2018-12-11T06:34:15.469Z,2.00
2018-12-11T06:36:49.500Z,2.00
2018-12-11T06:39:23.501Z,1.90
2018-12-11T06:41:57.730Z,2.00
2018-12-11T06:44:31.537Z,2.00
2018-12-11T06:47:05.462Z,2.00
2018-12-11T06:49:39.381Z,2.10
2018-12-11T06:52:13.470Z,2.00
2018-12-11T06:59:45.715Z,2.20
2018-12-11T07:02:21.869Z,2.20
2018-12-11T07:04:56.183Z,2.20
2018-12-11T07:07:30.797Z,2.20
2018-12-11T07:10:06.069Z,2.20
2018-12-11T07:12:42.585Z,2.20
2018-12-11T07:15:16.905Z,2.10
2018-12-11T07:17:50.830Z,2.10
2018-12-11T07:20:24.743Z,2.10
2018-12-11T07:22:56.365Z,2.10
2018-12-11T07:25:30.990Z,2.20
2018-12-11T07:28:05.821Z,2.20
2018-12-11T07:30:40.562Z,2.20
2018-12-11T07:33:14.986Z,2.30
2018-12-11T07:35:49.726Z,2.40
2018-12-11T07:38:24.565Z,2.40
2018-12-11T07:40:59.077Z,2.40
2018-12-11T07:43:29.782Z,2.40
2018-12-11T07:46:04.604Z,2.50
2018-12-11T07:48:35.412Z,2.50
2018-12-11T07:51:09.317Z,2.50
2018-12-11T07:53:43.258Z,2.60
2018-12-11T07:56:17.614Z,2.60
2018-12-11T08:06:20.786Z,2.70
2018-12-11T08:08:55.490Z,2.60
2018-12-11T08:11:29.530Z,2.70
2018-12-11T08:14:04.354Z,2.70
2018-12-11T08:16:39.166Z,2.70
2018-12-11T08:19:13.146Z,2.70
2018-12-11T08:21:49.170Z,2.70
2018-12-11T08:24:24.038Z,2.80
2018-12-11T08:29:28.847Z,2.80
2018-12-11T08:34:38.374Z,3.10
2018-12-11T08:37:08.992Z,2.90
2018-12-11T08:39:43.869Z,3.00
2018-12-11T08:42:18.597Z,3.10
2018-12-11T08:44:52.619Z,2.90
2018-12-11T08:47:26.837Z,2.90
2018-12-11T08:52:32.733Z,3.00
2018-12-11T08:55:06.569Z,3.10
2018-12-11T08:57:41.421Z,3.10
2018-12-11T09:00:12.286Z,3.10
2018-12-11T09:02:43.095Z,3.20
2018-12-11T09:05:17.019Z,3.20
2018-12-11T09:10:22.474Z,3.20
2018-12-11T09:12:56.994Z,3.20
2018-12-11T09:15:30.970Z,3.20
2018-12-11T09:18:01.676Z,3.20
2018-12-11T09:20:35.609Z,3.20
2018-12-11T09:23:10.460Z,3.20
2018-12-11T09:25:44.782Z,3.20
2018-12-11T09:28:18.602Z,3.20
2018-12-11T09:30:52.658Z,3.20
2018-12-11T09:33:23.436Z,3.20
2018-12-11T09:35:57.988Z,3.20
2018-12-11T09:38:32.029Z,3.20
2018-12-11T09:41:02.885Z,3.30
2018-12-11T09:46:11.618Z,3.40
2018-12-11T09:48:46.333Z,3.40
2018-12-11T09:51:20.366Z,3.40
2018-12-11T09:53:54.820Z,3.40
2018-12-11T09:56:29.710Z,3.60
2018-12-11T10:01:40.541Z,3.80
2018-12-11T10:04:14.440Z,3.80
2018-12-11T10:06:48.952Z,3.70
2018-12-11T10:09:23.453Z,3.80
2018-12-11T10:14:29.354Z,3.60
2018-12-11T10:17:00.225Z,3.60
2018-12-11T10:19:31.033Z,3.70
2018-12-11T10:22:05.037Z,3.70
2018-12-11T10:24:39.030Z,3.80
2018-12-11T10:27:13.833Z,3.70
2018-12-11T10:29:48.700Z,3.80
2018-12-11T10:32:23.745Z,3.80
2018-12-11T10:34:54.549Z,3.90
2018-12-11T10:37:29.178Z,3.80
2018-12-11T10:40:03.729Z,3.80
2018-12-11T10:42:34.361Z,3.90
2018-12-11T10:45:09.088Z,3.80
2018-12-11T10:47:39.850Z,3.80
2018-12-11T10:50:14.553Z,3.90
2018-12-11T10:52:48.757Z,4.10
2018-12-11T10:55:23.561Z,4.10
2018-12-11T10:57:58.454Z,4.30
2018-12-11T11:03:14.629Z,4.10
2018-12-11T11:05:48.550Z,4.30
2018-12-11T11:10:53.665Z,4.90
2018-12-11T11:13:28.425Z,4.80
2018-12-11T11:16:03.178Z,4.80
2018-12-11T11:21:11.866Z,5.40
2018-12-11T11:26:20.717Z,6.10
2018-12-11T11:28:55.418Z,5.80
2018-12-11T11:49:38.263Z,4.50
2018-12-11T11:52:15.065Z,4.50
2018-12-11T11:54:48.997Z,4.50
2018-12-11T11:59:59.893Z,4.40
2018-12-11T12:02:34.110Z,4.40
2018-12-11T12:05:08.133Z,4.40
2018-12-11T12:07:42.769Z,4.40
2018-12-11T12:10:17.113Z,4.40
2018-12-11T12:33:10.819Z,4.00
2018-12-11T12:35:45.355Z,3.90
2018-12-11T12:38:19.489Z,3.90
2018-12-11T12:40:53.514Z,3.90
2018-12-11T12:46:03.363Z,3.70
2018-12-11T12:48:37.278Z,3.70
2018-12-11T12:51:11.285Z,3.70
2018-12-11T12:53:45.260Z,3.90
2018-12-11T12:56:19.185Z,3.80
2018-12-11T12:58:49.997Z,3.80
2018-12-11T13:01:26.169Z,3.70
2018-12-11T13:04:00.177Z,3.80
2018-12-11T13:06:35.036Z,3.80
2018-12-11T13:09:09.081Z,3.80
2018-12-11T13:11:45.221Z,4.00
2018-12-11T13:14:20.041Z,3.80
2018-12-11T13:16:53.985Z,3.80
2018-12-11T13:19:24.606Z,3.80
2018-12-11T13:21:56.414Z,3.70
2018-12-11T13:24:31.290Z,3.70
2018-12-11T13:27:06.022Z,3.80
2018-12-11T13:29:40.217Z,3.80
2018-12-11T13:32:14.233Z,3.80
2018-12-11T13:37:23.059Z,4.10
2018-12-11T13:42:32.024Z,4.10
2018-12-11T13:45:06.930Z,4.10
2018-12-11T13:47:40.953Z,4.20
2018-12-11T13:50:14.862Z,4.20
2018-12-11T13:52:51.086Z,4.10
2018-12-11T13:57:59.626Z,4.20
2018-12-11T14:05:39.024Z,4.70
2018-12-11T14:08:12.953Z,4.70
2018-12-11T14:13:21.544Z,4.80
2018-12-11T14:15:52.057Z,4.80
2018-12-11T14:18:25.890Z,4.50
2018-12-11T14:21:00.725Z,4.50
2018-12-11T14:23:34.700Z,4.70
2018-12-11T14:26:09.401Z,4.60
2018-12-11T14:28:43.561Z,4.40
2018-12-11T14:31:17.465Z,4.30
2018-12-11T14:33:47.589Z,4.30
2018-12-11T14:36:21.753Z,4.30
2018-12-11T14:38:56.525Z,4.30
2018-12-11T14:41:30.405Z,4.20
2018-12-11T14:44:05.233Z,4.20
2018-12-11T14:46:39.289Z,4.10
2018-12-11T15:04:30.468Z,3.80
2018-12-11T15:12:14.443Z,3.70
2018-12-11T15:14:49.157Z,3.70
2018-12-11T15:17:23.265Z,3.80
2018-12-11T15:22:25.158Z,3.60
2018-12-11T15:30:08.406Z,3.70
2018-12-11T15:32:43.145Z,3.40
2018-12-11T15:35:17.118Z,3.40
2018-12-11T15:37:51.280Z,3.30
2018-12-11T15:40:25.239Z,3.20
2018-12-11T15:43:01.270Z,3.20
2018-12-11T15:45:35.489Z,3.10
2018-12-11T15:48:10.226Z,3.10
2018-12-11T15:50:45.046Z,3.00
2018-12-11T15:53:20.137Z,2.90
2018-12-11T15:55:54.293Z,2.90
2018-12-11T15:58:25.036Z,3.00
2018-12-11T16:00:59.224Z,3.10
2018-12-11T16:03:34.954Z,3.10
2018-12-11T16:06:08.972Z,3.20
2018-12-11T16:08:43.038Z,3.20
2018-12-11T16:11:17.114Z,3.20
2018-12-11T16:13:51.826Z,3.20
2018-12-11T16:16:25.939Z,3.20
2018-12-11T16:19:00.070Z,3.20
2018-12-11T16:21:30.995Z,3.20
2018-12-11T16:24:04.899Z,3.20
2018-12-11T16:26:38.838Z,3.10
2018-12-11T16:29:12.765Z,3.10
2018-12-11T16:31:48.981Z,3.10
2018-12-11T16:34:23.084Z,3.10
2018-12-11T16:36:57.921Z,3.10
2018-12-11T16:39:32.958Z,3.10
2018-12-11T16:42:07.789Z,3.10
2018-12-11T16:44:42.385Z,3.10
2018-12-11T16:47:16.416Z,3.10
2018-12-11T16:49:50.322Z,3.10
2018-12-11T16:52:26.386Z,3.10
2018-12-11T16:55:00.330Z,3.10
2018-12-11T16:57:31.157Z,3.10
2018-12-11T17:00:05.916Z,3.10
2018-12-11T17:02:40.998Z,3.10
2018-12-11T17:05:15.626Z,3.10
2018-12-11T17:07:45.658Z,3.10
2018-12-11T17:10:19.683Z,3.10
2018-12-11T17:12:51.599Z,3.00
2018-12-11T17:15:26.461Z,3.10
2018-12-11T17:18:00.369Z,3.10
2018-12-11T17:20:34.409Z,3.10
2018-12-11T17:23:09.281Z,3.10
2018-12-11T17:25:43.950Z,3.10
2018-12-11T17:28:14.822Z,3.10
2018-12-11T17:30:49.437Z,3.10
2018-12-11T17:33:23.381Z,3.10
2018-12-11T17:35:57.902Z,3.10
2018-12-11T17:38:31.949Z,3.00
2018-12-11T17:41:06.845Z,3.10
2018-12-11T17:43:41.573Z,3.10
2018-12-11T17:46:12.421Z,3.10
2018-12-11T17:48:47.331Z,3.10
2018-12-11T17:51:21.454Z,3.00
2018-12-11T17:53:55.449Z,3.10
2018-12-11T17:56:29.370Z,3.10
2018-12-11T17:59:03.373Z,3.00
2018-12-11T18:01:37.535Z,3.00
2018-12-11T18:04:08.146Z,3.00
2018-12-11T18:06:42.278Z,3.10
2018-12-11T18:09:16.315Z,3.10
2018-12-11T18:11:50.967Z,3.00
2018-12-11T18:14:24.995Z,3.00
2018-12-11T18:16:55.798Z,3.00
2018-12-11T18:19:29.798Z,3.00
2018-12-11T18:22:04.662Z,3.00
2018-12-11T18:24:35.289Z,3.00
2018-12-11T18:27:09.225Z,3.00
2018-12-11T18:29:43.949Z,3.00
2018-12-11T18:32:17.937Z,3.00
2018-12-11T18:34:52.098Z,3.00
2018-12-11T18:37:26.178Z,3.00
2018-12-11T18:39:56.970Z,2.90
2018-12-11T18:42:31.001Z,2.90
2018-12-11T18:45:06.073Z,2.90
2018-12-11T18:47:40.189Z,2.90
2018-12-11T18:50:14.201Z,2.80
2018-12-11T18:52:49.407Z,2.80
2018-12-11T18:55:24.024Z,2.90
2018-12-11T18:57:58.017Z,2.80
2018-12-11T19:00:32.049Z,2.90
2018-12-11T19:03:07.030Z,2.90
2018-12-11T19:05:37.702Z,2.90
2018-12-11T19:08:11.763Z,2.90
2018-12-11T19:10:45.797Z,2.90
2018-12-11T19:13:21.681Z,2.80
2018-12-11T19:15:55.872Z,2.90
2018-12-11T19:18:30.629Z,2.90
2018-12-11T19:21:05.433Z,2.90
2018-12-11T19:23:39.726Z,2.90
2018-12-11T19:26:14.282Z,2.80
2018-12-11T19:28:44.769Z,2.80
2018-12-11T19:31:15.307Z,2.80
2018-12-11T19:33:49.333Z,2.80
2018-12-11T19:36:23.994Z,2.80
2018-12-11T19:38:54.694Z,2.80
2018-12-11T19:41:29.599Z,2.80
2018-12-11T19:44:04.471Z,2.80
2018-12-11T19:46:38.585Z,2.90
2018-12-11T19:49:13.382Z,2.70
2018-12-11T19:51:47.341Z,2.80
2018-12-11T19:54:21.285Z,2.80
2018-12-11T19:56:56.146Z,2.70
2018-12-11T19:59:30.257Z,2.80
2018-12-11T20:02:05.062Z,2.80
2018-12-11T20:04:35.782Z,2.80
2018-12-11T20:07:09.710Z,2.80
2018-12-11T20:09:50.077Z,2.90
2018-12-11T20:12:26.186Z,2.80
2018-12-11T20:15:04.720Z,2.80
2018-12-11T20:17:36.946Z,2.90
2018-12-11T20:20:12.997Z,2.80
2018-12-11T20:22:47.591Z,2.80
2018-12-11T20:25:22.381Z,2.80
2018-12-11T20:27:57.098Z,2.80
2018-12-11T20:30:30.993Z,2.70
2018-12-11T20:33:05.576Z,2.80
2018-12-11T20:35:39.674Z,2.80
2018-12-11T20:38:14.389Z,2.80
2018-12-11T20:40:48.433Z,2.80
2018-12-11T20:43:25.498Z,2.80
2018-12-11T20:46:00.145Z,2.80
2018-12-11T20:48:30.979Z,2.80
2018-12-11T20:51:01.397Z,2.80
2018-12-11T20:53:35.964Z,2.70
2018-12-11T20:56:10.270Z,2.70
2018-12-11T20:58:44.705Z,2.70
2018-12-11T21:01:19.424Z,2.80
2018-12-11T21:03:50.225Z,2.80
2018-12-11T21:06:24.854Z,2.80
2018-12-11T21:08:59.269Z,2.80
2018-12-11T21:11:36.010Z,2.80
2018-12-11T21:14:10.649Z,2.70
2018-12-11T21:23:51.139Z,2.80
2018-12-11T21:26:25.849Z,2.80
2018-12-11T21:29:00.755Z,2.70
2018-12-11T21:31:34.786Z,2.70
2018-12-11T21:34:09.407Z,2.70
2018-12-11T21:36:43.328Z,2.70
2018-12-11T21:39:18.065Z,2.70
2018-12-11T21:41:53.291Z,2.70
2018-12-11T21:44:28.110Z,2.70
2018-12-11T21:46:58.914Z,2.70
2018-12-11T21:49:32.870Z,2.70
2018-12-11T21:52:03.704Z,2.60
2018-12-11T21:54:37.622Z,2.70
2018-12-11T21:57:12.335Z,2.70
2018-12-11T21:59:46.249Z,2.70
2018-12-11T22:02:21.489Z,2.70
2018-12-11T22:04:52.319Z,2.70
2018-12-11T22:07:26.935Z,2.60
2018-12-11T22:10:00.873Z,2.60
2018-12-11T22:12:35.137Z,2.60
2018-12-11T22:15:09.069Z,2.60
2018-12-11T22:17:43.178Z,2.60
2018-12-11T22:20:17.773Z,2.70
2018-12-11T22:22:51.826Z,2.60
2018-12-11T22:25:25.946Z,2.60
2018-12-11T22:28:00.058Z,2.60
2018-12-11T22:30:34.285Z,2.60
2018-12-11T22:33:09.205Z,2.60
2018-12-11T22:35:43.420Z,2.70
2018-12-11T22:38:17.530Z,2.70
2018-12-11T22:40:48.255Z,2.60
2018-12-11T22:43:22.264Z,2.60
2018-12-11T22:45:56.182Z,2.80
2018-12-11T22:48:30.338Z,2.80
2018-12-11T22:51:05.554Z,2.80
2018-12-11T22:53:40.369Z,2.70
2018-12-11T22:56:14.630Z,2.70
2018-12-11T22:58:48.637Z,2.80
2018-12-11T23:01:19.730Z,2.80
2018-12-11T23:03:50.459Z,2.80
2018-12-11T23:06:24.490Z,2.80
2018-12-11T23:08:59.103Z,2.80
2018-12-11T23:11:33.113Z,2.80
2018-12-11T23:14:07.913Z,2.80
2018-12-11T23:16:41.836Z,2.90
2018-12-11T23:19:15.849Z,2.80
2018-12-11T23:21:51.822Z,2.90
2018-12-11T23:24:22.717Z,2.80
2018-12-11T23:26:53.537Z,2.90
2018-12-11T23:29:28.241Z,2.80
2018-12-11T23:32:03.041Z,2.80
2018-12-11T23:34:37.857Z,2.80
2018-12-11T23:37:12.683Z,2.80
2018-12-11T23:39:46.707Z,2.80
2018-12-11T23:42:20.826Z,2.80
2018-12-11T23:44:54.941Z,2.80
2018-12-11T23:47:25.745Z,2.80
2018-12-11T23:49:59.649Z,2.80
2018-12-11T23:52:35.553Z,2.70
2018-12-11T23:55:06.220Z,2.70
2018-12-11T23:57:40.924Z,2.70
